Aérodrome :
LOGIN :

S'inscrire | Disclaimer

   EN    FR    IT 

 










Légende :    VFR   VFR Marginal   IFR   IFR Intensif   IFR Très Intensif
Visi : 
Plafond : 
>= 8 km
>= 3000ft
5 à 8 km
1000 à 3000 ft
1500m à 5 km
500 à 1000 ft
800 à 1500m
200 à 500 ft
< 800m
< 200 ft
Symboles :   Orages  Brouillard  Fortes neiges  Fortes précipitations  Vent > 20 kt
SIGMETs :   Divers  Orages  Givrage  Turbulence  Onde Orograph.  Cendres Volcan.






- Altitude de l'aérodrome : 7 ft
- Code IATA : ESH


EGKA - Shoreham

DERNIER METAR :
  • 281220Z 17018G28KT 1800 -RA OVC005 07/07 Q1006

METARs EXPIRÉS :
  • 281150Z 16019KT 2000 -RA BKN006 07/06 Q1007
  • 281120Z 16017G27KT 2000 -RA BKN006 07/06 Q1008
  • 281050Z 19021KT 3000 -RA BKN006 07/06 Q1008
  • 281020Z 19019G29KT 8000 -SHRA BKN006 07/05 Q1010

TAF TAF EGKA
Valide du 28 à 12h jusqu'au 28 à 20h UTC


281126Z 2812/2820 17020G30KT 6000 -RA BKN006
TEMPO 2812/2817 2500 RADZ
PROB40
TEMPO 2812/2817 BKN003
BECMG 2814/2817 23020G30KT
BECMG 2816/2818 9999 NSW BKN016
PROB30
TEMPO 2817/2820 6000 -RA
PROB40
TEMPO 2818/2820 BKN012
ATIS : +44 1273 467 372



MET'MAP, la Météo Aéronautique d'un coup d'oeil ! - Copyright ORBIFLY Décembre 2007 - Disclaimer

ORBIFLY MET'MAP TEAM :

Programmation & Développement : Alexandra Zaïnal
Sur une idée originale de : Baudouin d'Aumeries
Assistance à la programmation : Marc-Olivier Méhu
Soutien technique & logistique : Manuel Goepfert

Contact : metmap@orbifly.com




SOURCES & CREDITS :

   NOAA